sensor_id;sensor_type;location;lat;lon;timestamp;P1;durP1;ratioP1;P2;durP2;ratioP2
38226;SDS011;24026;49.446;8.576;2023-05-20T00:00:35;132.70;;;120.43;;
38226;SDS011;24026;49.446;8.576;2023-05-20T00:02:55;133.40;;;121.00;;
38226;SDS011;24026;49.446;8.576;2023-05-20T00:05:16;134.18;;;121.70;;
38226;SDS011;24026;49.446;8.576;2023-05-20T00:07:37;134.05;;;121.40;;
38226;SDS011;24026;49.446;8.576;2023-05-20T00:09:57;132.60;;;120.20;;
38226;SDS011;24026;49.446;8.576;2023-05-20T00:12:17;132.52;;;120.10;;
38226;SDS011;24026;49.446;8.576;2023-05-20T00:14:38;132.23;;;120.00;;
38226;SDS011;24026;49.446;8.576;2023-05-20T00:16:58;131.85;;;119.68;;
38226;SDS011;24026;49.446;8.576;2023-05-20T00:19:18;131.10;;;118.85;;
38226;SDS011;24026;49.446;8.576;2023-05-20T00:21:39;132.52;;;120.18;;
38226;SDS011;24026;49.446;8.576;2023-05-20T00:23:59;133.27;;;120.80;;
38226;SDS011;24026;49.446;8.576;2023-05-20T00:26:19;133.10;;;120.68;;
38226;SDS011;24026;49.446;8.576;2023-05-20T00:28:40;134.98;;;122.38;;
38226;SDS011;24026;49.446;8.576;2023-05-20T00:31:00;134.38;;;121.88;;
38226;SDS011;24026;49.446;8.576;2023-05-20T00:33:21;132.85;;;120.50;;
38226;SDS011;24026;49.446;8.576;2023-05-20T00:35:41;133.15;;;120.72;;
38226;SDS011;24026;49.446;8.576;2023-05-20T00:38:01;132.13;;;119.82;;
38226;SDS011;24026;49.446;8.576;2023-05-20T00:40:22;131.13;;;118.82;;
38226;SDS011;24026;49.446;8.576;2023-05-20T00:42:44;132.65;;;120.38;;
38226;SDS011;24026;49.446;8.576;2023-05-20T00:45:04;131.40;;;119.13;;
38226;SDS011;24026;49.446;8.576;2023-05-20T00:47:28;132.15;;;119.88;;
38226;SDS011;24026;49.446;8.576;2023-05-20T00:49:51;131.40;;;119.10;;
38226;SDS011;24026;49.446;8.576;2023-05-20T00:52:12;131.43;;;119.15;;
38226;SDS011;24026;49.446;8.576;2023-05-20T00:54:33;132.05;;;119.75;;
38226;SDS011;24026;49.446;8.576;2023-05-20T00:56:55;131.90;;;119.50;;
38226;SDS011;24026;49.446;8.576;2023-05-20T00:59:15;131.52;;;119.13;;
38226;SDS011;24026;49.446;8.576;2023-05-20T01:01:36;131.48;;;119.20;;
38226;SDS011;24026;49.446;8.576;2023-05-20T01:03:57;132.70;;;120.30;;
38226;SDS011;24026;49.446;8.576;2023-05-20T01:06:18;132.70;;;120.25;;
38226;SDS011;24026;49.446;8.576;2023-05-20T01:08:38;132.85;;;120.38;;
38226;SDS011;24026;49.446;8.576;2023-05-20T01:11:02;131.77;;;119.38;;
38226;SDS011;24026;49.446;8.576;2023-05-20T01:13:26;130.97;;;118.60;;
38226;SDS011;24026;49.446;8.576;2023-05-20T01:15:52;132.63;;;120.13;;
38226;SDS011;24026;49.446;8.576;2023-05-20T01:18:15;132.27;;;119.82;;
38226;SDS011;24026;49.446;8.576;2023-05-20T01:20:37;132.80;;;120.43;;
38226;SDS011;24026;49.446;8.576;2023-05-20T01:22:58;131.55;;;119.30;;
38226;SDS011;24026;49.446;8.576;2023-05-20T01:25:19;130.75;;;118.53;;
38226;SDS011;24026;49.446;8.576;2023-05-20T01:27:39;130.60;;;118.40;;
38226;SDS011;24026;49.446;8.576;2023-05-20T01:30:00;131.68;;;119.28;;
38226;SDS011;24026;49.446;8.576;2023-05-20T01:32:21;129.98;;;117.75;;
38226;SDS011;24026;49.446;8.576;2023-05-20T01:34:44;131.73;;;119.50;;
38226;SDS011;24026;49.446;8.576;2023-05-20T01:37:08;130.77;;;118.65;;
38226;SDS011;24026;49.446;8.576;2023-05-20T01:39:30;130.65;;;118.38;;
38226;SDS011;24026;49.446;8.576;2023-05-20T01:41:52;130.07;;;117.95;;
38226;SDS011;24026;49.446;8.576;2023-05-20T01:44:14;129.93;;;117.82;;
38226;SDS011;24026;49.446;8.576;2023-05-20T01:46:35;129.95;;;117.80;;
38226;SDS011;24026;49.446;8.576;2023-05-20T01:48:55;130.18;;;118.00;;
38226;SDS011;24026;49.446;8.576;2023-05-20T01:51:16;130.38;;;118.25;;
38226;SDS011;24026;49.446;8.576;2023-05-20T01:53:36;129.88;;;117.78;;
38226;SDS011;24026;49.446;8.576;2023-05-20T01:55:57;129.35;;;117.30;;
38226;SDS011;24026;49.446;8.576;2023-05-20T01:58:17;130.10;;;117.97;;
38226;SDS011;24026;49.446;8.576;2023-05-20T02:00:37;129.70;;;117.65;;
38226;SDS011;24026;49.446;8.576;2023-05-20T02:02:58;131.02;;;118.82;;
38226;SDS011;24026;49.446;8.576;2023-05-20T02:05:18;131.15;;;118.97;;
38226;SDS011;24026;49.446;8.576;2023-05-20T02:07:39;130.10;;;117.90;;
38226;SDS011;24026;49.446;8.576;2023-05-20T02:09:59;129.65;;;117.55;;
38226;SDS011;24026;49.446;8.576;2023-05-20T02:12:19;131.00;;;118.82;;
38226;SDS011;24026;49.446;8.576;2023-05-20T02:14:40;129.52;;;117.40;;
38226;SDS011;24026;49.446;8.576;2023-05-20T02:17:01;129.00;;;116.95;;
38226;SDS011;24026;49.446;8.576;2023-05-20T02:19:22;128.43;;;116.43;;
38226;SDS011;24026;49.446;8.576;2023-05-20T02:21:42;129.45;;;117.45;;
38226;SDS011;24026;49.446;8.576;2023-05-20T02:24:04;128.95;;;116.88;;
38226;SDS011;24026;49.446;8.576;2023-05-20T02:26:25;129.50;;;117.40;;
38226;SDS011;24026;49.446;8.576;2023-05-20T02:28:45;129.38;;;117.32;;
38226;SDS011;24026;49.446;8.576;2023-05-20T02:31:09;130.13;;;117.97;;
38226;SDS011;24026;49.446;8.576;2023-05-20T02:33:30;129.98;;;117.80;;
38226;SDS011;24026;49.446;8.576;2023-05-20T02:35:50;128.32;;;116.30;;
38226;SDS011;24026;49.446;8.576;2023-05-20T02:38:11;129.70;;;117.60;;
38226;SDS011;24026;49.446;8.576;2023-05-20T02:40:31;131.10;;;118.82;;
38226;SDS011;24026;49.446;8.576;2023-05-20T02:42:52;129.40;;;117.30;;
38226;SDS011;24026;49.446;8.576;2023-05-20T02:45:12;128.77;;;116.70;;
38226;SDS011;24026;49.446;8.576;2023-05-20T02:47:33;131.05;;;118.82;;
38226;SDS011;24026;49.446;8.576;2023-05-20T02:49:53;130.63;;;118.45;;
38226;SDS011;24026;49.446;8.576;2023-05-20T02:52:13;129.18;;;117.10;;
38226;SDS011;24026;49.446;8.576;2023-05-20T02:54:35;130.18;;;117.85;;
38226;SDS011;24026;49.446;8.576;2023-05-20T02:56:55;131.75;;;119.38;;
38226;SDS011;24026;49.446;8.576;2023-05-20T02:59:16;131.48;;;119.18;;
38226;SDS011;24026;49.446;8.576;2023-05-20T03:01:36;131.95;;;119.55;;
38226;SDS011;24026;49.446;8.576;2023-05-20T03:03:57;131.18;;;118.78;;
38226;SDS011;24026;49.446;8.576;2023-05-20T03:06:17;131.38;;;119.07;;
38226;SDS011;24026;49.446;8.576;2023-05-20T03:08:37;131.65;;;119.30;;
38226;SDS011;24026;49.446;8.576;2023-05-20T03:10:59;129.77;;;117.65;;
38226;SDS011;24026;49.446;8.576;2023-05-20T03:13:19;129.98;;;117.68;;
38226;SDS011;24026;49.446;8.576;2023-05-20T03:15:40;131.80;;;119.30;;
38226;SDS011;24026;49.446;8.576;2023-05-20T03:18:01;131.25;;;118.85;;
38226;SDS011;24026;49.446;8.576;2023-05-20T03:20:22;130.82;;;118.63;;
38226;SDS011;24026;49.446;8.576;2023-05-20T03:22:43;130.88;;;118.60;;
38226;SDS011;24026;49.446;8.576;2023-05-20T03:25:03;130.98;;;118.63;;
38226;SDS011;24026;49.446;8.576;2023-05-20T03:27:25;132.60;;;120.13;;
38226;SDS011;24026;49.446;8.576;2023-05-20T03:29:45;132.68;;;120.13;;
38226;SDS011;24026;49.446;8.576;2023-05-20T03:32:07;131.10;;;118.50;;
38226;SDS011;24026;49.446;8.576;2023-05-20T03:34:27;130.07;;;117.97;;
38226;SDS011;24026;49.446;8.576;2023-05-20T03:36:50;130.35;;;118.15;;
38226;SDS011;24026;49.446;8.576;2023-05-20T03:39:10;131.70;;;119.45;;
38226;SDS011;24026;49.446;8.576;2023-05-20T03:41:31;129.25;;;117.10;;
38226;SDS011;24026;49.446;8.576;2023-05-20T03:43:51;130.73;;;118.53;;
38226;SDS011;24026;49.446;8.576;2023-05-20T03:46:12;128.63;;;116.47;;
38226;SDS011;24026;49.446;8.576;2023-05-20T03:48:32;129.15;;;116.95;;
38226;SDS011;24026;49.446;8.576;2023-05-20T03:50:53;128.77;;;116.78;;
38226;SDS011;24026;49.446;8.576;2023-05-20T03:53:13;129.13;;;117.13;;
38226;SDS011;24026;49.446;8.576;2023-05-20T03:55:33;129.77;;;117.38;;
38226;SDS011;24026;49.446;8.576;2023-05-20T03:57:54;128.90;;;116.65;;
38226;SDS011;24026;49.446;8.576;2023-05-20T04:00:14;129.32;;;117.13;;
38226;SDS011;24026;49.446;8.576;2023-05-20T04:02:35;129.43;;;117.22;;
38226;SDS011;24026;49.446;8.576;2023-05-20T04:04:57;128.65;;;116.55;;
38226;SDS011;24026;49.446;8.576;2023-05-20T04:07:20;130.32;;;118.03;;
38226;SDS011;24026;49.446;8.576;2023-05-20T04:09:40;129.93;;;117.78;;
38226;SDS011;24026;49.446;8.576;2023-05-20T04:12:01;129.32;;;117.05;;
38226;SDS011;24026;49.446;8.576;2023-05-20T04:14:22;130.13;;;117.80;;
38226;SDS011;24026;49.446;8.576;2023-05-20T04:16:42;129.80;;;117.68;;
38226;SDS011;24026;49.446;8.576;2023-05-20T04:19:04;130.05;;;117.75;;
38226;SDS011;24026;49.446;8.576;2023-05-20T04:21:24;129.75;;;117.68;;
38226;SDS011;24026;49.446;8.576;2023-05-20T04:23:45;129.10;;;117.03;;
38226;SDS011;24026;49.446;8.576;2023-05-20T04:26:05;129.02;;;116.95;;
38226;SDS011;24026;49.446;8.576;2023-05-20T04:28:26;130.30;;;118.13;;
38226;SDS011;24026;49.446;8.576;2023-05-20T04:30:47;130.02;;;117.82;;
38226;SDS011;24026;49.446;8.576;2023-05-20T04:33:07;128.48;;;116.40;;
38226;SDS011;24026;49.446;8.576;2023-05-20T04:35:27;129.40;;;117.30;;
38226;SDS011;24026;49.446;8.576;2023-05-20T04:37:48;129.20;;;117.10;;
38226;SDS011;24026;49.446;8.576;2023-05-20T04:40:09;129.15;;;117.05;;
38226;SDS011;24026;49.446;8.576;2023-05-20T04:42:31;128.77;;;116.63;;
38226;SDS011;24026;49.446;8.576;2023-05-20T04:44:52;129.82;;;117.65;;
38226;SDS011;24026;49.446;8.576;2023-05-20T04:47:14;129.13;;;116.97;;
38226;SDS011;24026;49.446;8.576;2023-05-20T04:49:34;130.82;;;118.63;;
38226;SDS011;24026;49.446;8.576;2023-05-20T04:51:54;130.68;;;118.50;;
38226;SDS011;24026;49.446;8.576;2023-05-20T04:54:15;131.57;;;119.35;;
38226;SDS011;24026;49.446;8.576;2023-05-20T04:56:36;128.75;;;116.70;;
38226;SDS011;24026;49.446;8.576;2023-05-20T04:58:57;129.93;;;117.78;;
38226;SDS011;24026;49.446;8.576;2023-05-20T05:01:18;129.73;;;117.60;;
38226;SDS011;24026;49.446;8.576;2023-05-20T05:03:38;129.88;;;117.72;;
38226;SDS011;24026;49.446;8.576;2023-05-20T05:05:59;131.25;;;118.68;;
38226;SDS011;24026;49.446;8.576;2023-05-20T05:08:19;130.82;;;118.53;;
38226;SDS011;24026;49.446;8.576;2023-05-20T05:10:39;129.32;;;117.18;;
38226;SDS011;24026;49.446;8.576;2023-05-20T05:13:00;129.80;;;117.70;;
38226;SDS011;24026;49.446;8.576;2023-05-20T05:15:21;129.45;;;117.32;;
38226;SDS011;24026;49.446;8.576;2023-05-20T05:17:41;129.63;;;117.50;;
38226;SDS011;24026;49.446;8.576;2023-05-20T05:20:01;131.07;;;118.85;;
38226;SDS011;24026;49.446;8.576;2023-05-20T05:22:22;129.82;;;117.65;;
38226;SDS011;24026;49.446;8.576;2023-05-20T05:24:42;128.85;;;116.75;;
38226;SDS011;24026;49.446;8.576;2023-05-20T05:27:03;129.98;;;117.80;;
38226;SDS011;24026;49.446;8.576;2023-05-20T05:29:23;129.85;;;117.70;;
38226;SDS011;24026;49.446;8.576;2023-05-20T05:31:44;129.80;;;117.70;;
38226;SDS011;24026;49.446;8.576;2023-05-20T05:34:04;131.00;;;118.65;;
38226;SDS011;24026;49.446;8.576;2023-05-20T05:36:24;131.07;;;118.57;;
38226;SDS011;24026;49.446;8.576;2023-05-20T05:38:45;131.40;;;118.93;;
38226;SDS011;24026;49.446;8.576;2023-05-20T05:41:05;130.55;;;118.20;;
38226;SDS011;24026;49.446;8.576;2023-05-20T05:43:26;131.98;;;119.50;;
38226;SDS011;24026;49.446;8.576;2023-05-20T05:45:46;130.15;;;117.90;;
38226;SDS011;24026;49.446;8.576;2023-05-20T05:48:07;130.13;;;117.75;;
38226;SDS011;24026;49.446;8.576;2023-05-20T05:50:27;130.55;;;118.25;;
38226;SDS011;24026;49.446;8.576;2023-05-20T05:52:48;130.45;;;118.07;;
38226;SDS011;24026;49.446;8.576;2023-05-20T05:55:09;130.75;;;118.35;;
38226;SDS011;24026;49.446;8.576;2023-05-20T05:57:29;129.32;;;117.00;;
38226;SDS011;24026;49.446;8.576;2023-05-20T05:59:50;130.07;;;117.78;;
38226;SDS011;24026;49.446;8.576;2023-05-20T06:02:10;130.18;;;117.88;;
38226;SDS011;24026;49.446;8.576;2023-05-20T06:04:33;131.57;;;119.18;;
38226;SDS011;24026;49.446;8.576;2023-05-20T06:06:53;132.10;;;119.70;;
38226;SDS011;24026;49.446;8.576;2023-05-20T06:09:14;132.52;;;120.07;;
38226;SDS011;24026;49.446;8.576;2023-05-20T06:11:34;131.15;;;118.85;;
38226;SDS011;24026;49.446;8.576;2023-05-20T06:13:54;130.70;;;118.38;;
38226;SDS011;24026;49.446;8.576;2023-05-20T06:16:15;130.52;;;118.22;;
38226;SDS011;24026;49.446;8.576;2023-05-20T06:18:35;131.10;;;118.78;;
38226;SDS011;24026;49.446;8.576;2023-05-20T06:20:56;131.00;;;118.70;;
38226;SDS011;24026;49.446;8.576;2023-05-20T06:23:17;131.90;;;119.50;;
38226;SDS011;24026;49.446;8.576;2023-05-20T06:25:37;131.75;;;119.25;;
38226;SDS011;24026;49.446;8.576;2023-05-20T06:27:58;130.73;;;118.50;;
38226;SDS011;24026;49.446;8.576;2023-05-20T06:30:18;131.07;;;118.78;;
38226;SDS011;24026;49.446;8.576;2023-05-20T06:32:39;130.77;;;118.53;;
38226;SDS011;24026;49.446;8.576;2023-05-20T06:34:59;132.25;;;119.95;;
38226;SDS011;24026;49.446;8.576;2023-05-20T06:37:19;131.50;;;119.20;;
38226;SDS011;24026;49.446;8.576;2023-05-20T06:39:43;131.93;;;119.55;;
38226;SDS011;24026;49.446;8.576;2023-05-20T06:42:03;132.45;;;120.07;;
38226;SDS011;24026;49.446;8.576;2023-05-20T06:44:24;131.82;;;119.53;;
38226;SDS011;24026;49.446;8.576;2023-05-20T06:46:45;130.77;;;118.47;;
38226;SDS011;24026;49.446;8.576;2023-05-20T06:49:05;132.60;;;120.10;;
38226;SDS011;24026;49.446;8.576;2023-05-20T06:51:26;131.27;;;118.97;;
38226;SDS011;24026;49.446;8.576;2023-05-20T06:53:47;131.23;;;118.78;;
38226;SDS011;24026;49.446;8.576;2023-05-20T06:56:07;131.80;;;119.53;;
38226;SDS011;24026;49.446;8.576;2023-05-20T06:58:28;131.65;;;119.38;;
38226;SDS011;24026;49.446;8.576;2023-05-20T07:00:48;130.95;;;118.72;;
38226;SDS011;24026;49.446;8.576;2023-05-20T07:03:08;133.10;;;120.68;;
38226;SDS011;24026;49.446;8.576;2023-05-20T07:05:30;132.20;;;119.90;;
38226;SDS011;24026;49.446;8.576;2023-05-20T07:07:50;131.98;;;119.68;;
38226;SDS011;24026;49.446;8.576;2023-05-20T07:10:11;131.88;;;119.60;;
38226;SDS011;24026;49.446;8.576;2023-05-20T07:12:32;131.45;;;119.15;;
38226;SDS011;24026;49.446;8.576;2023-05-20T07:14:52;132.00;;;119.60;;
38226;SDS011;24026;49.446;8.576;2023-05-20T07:17:12;132.27;;;120.03;;
38226;SDS011;24026;49.446;8.576;2023-05-20T07:19:33;132.75;;;120.45;;
38226;SDS011;24026;49.446;8.576;2023-05-20T07:21:53;133.10;;;120.82;;
38226;SDS011;24026;49.446;8.576;2023-05-20T07:24:14;133.68;;;121.38;;
38226;SDS011;24026;49.446;8.576;2023-05-20T07:26:35;132.75;;;120.35;;
38226;SDS011;24026;49.446;8.576;2023-05-20T07:28:56;133.73;;;121.43;;
38226;SDS011;24026;49.446;8.576;2023-05-20T07:31:16;133.88;;;121.53;;
38226;SDS011;24026;49.446;8.576;2023-05-20T07:33:37;133.00;;;120.75;;
38226;SDS011;24026;49.446;8.576;2023-05-20T07:35:57;134.55;;;121.95;;
38226;SDS011;24026;49.446;8.576;2023-05-20T07:38:18;131.85;;;119.70;;
38226;SDS011;24026;49.446;8.576;2023-05-20T07:40:38;134.07;;;121.68;;
38226;SDS011;24026;49.446;8.576;2023-05-20T07:43:00;132.23;;;120.03;;
38226;SDS011;24026;49.446;8.576;2023-05-20T07:45:20;133.00;;;120.78;;
38226;SDS011;24026;49.446;8.576;2023-05-20T07:47:41;132.65;;;120.45;;
38226;SDS011;24026;49.446;8.576;2023-05-20T07:50:01;134.85;;;122.45;;
38226;SDS011;24026;49.446;8.576;2023-05-20T07:52:22;133.38;;;121.13;;
38226;SDS011;24026;49.446;8.576;2023-05-20T07:54:42;134.15;;;121.80;;
38226;SDS011;24026;49.446;8.576;2023-05-20T07:57:02;132.93;;;120.65;;
38226;SDS011;24026;49.446;8.576;2023-05-20T07:59:23;134.93;;;122.63;;
38226;SDS011;24026;49.446;8.576;2023-05-20T08:01:43;132.75;;;120.50;;
38226;SDS011;24026;49.446;8.576;2023-05-20T08:04:04;134.05;;;121.75;;
38226;SDS011;24026;49.446;8.576;2023-05-20T08:06:24;134.75;;;122.35;;
38226;SDS011;24026;49.446;8.576;2023-05-20T08:08:45;135.63;;;123.22;;
38226;SDS011;24026;49.446;8.576;2023-05-20T08:11:06;134.52;;;122.22;;
38226;SDS011;24026;49.446;8.576;2023-05-20T08:13:27;133.38;;;121.15;;
38226;SDS011;24026;49.446;8.576;2023-05-20T08:15:47;133.32;;;121.10;;
38226;SDS011;24026;49.446;8.576;2023-05-20T08:18:07;135.15;;;122.75;;
38226;SDS011;24026;49.446;8.576;2023-05-20T08:20:28;135.32;;;123.03;;
38226;SDS011;24026;49.446;8.576;2023-05-20T08:22:48;135.55;;;123.13;;
38226;SDS011;24026;49.446;8.576;2023-05-20T08:25:09;134.95;;;122.65;;
38226;SDS011;24026;49.446;8.576;2023-05-20T08:27:30;136.10;;;123.60;;
38226;SDS011;24026;49.446;8.576;2023-05-20T08:29:52;137.90;;;125.38;;
38226;SDS011;24026;49.446;8.576;2023-05-20T08:32:12;135.13;;;122.72;;
38226;SDS011;24026;49.446;8.576;2023-05-20T08:34:32;136.75;;;124.30;;
38226;SDS011;24026;49.446;8.576;2023-05-20T08:36:53;135.75;;;123.35;;
38226;SDS011;24026;49.446;8.576;2023-05-20T08:39:13;136.98;;;124.47;;
38226;SDS011;24026;49.446;8.576;2023-05-20T08:41:34;136.85;;;124.35;;
38226;SDS011;24026;49.446;8.576;2023-05-20T08:43:54;137.25;;;124.82;;
38226;SDS011;24026;49.446;8.576;2023-05-20T08:46:16;137.18;;;124.68;;
38226;SDS011;24026;49.446;8.576;2023-05-20T08:48:38;135.88;;;123.55;;
38226;SDS011;24026;49.446;8.576;2023-05-20T08:50:58;139.23;;;126.57;;
38226;SDS011;24026;49.446;8.576;2023-05-20T08:53:21;137.57;;;125.05;;
38226;SDS011;24026;49.446;8.576;2023-05-20T08:55:44;138.30;;;125.80;;
38226;SDS011;24026;49.446;8.576;2023-05-20T08:58:08;137.75;;;125.28;;
38226;SDS011;24026;49.446;8.576;2023-05-20T09:00:29;136.02;;;123.68;;
38226;SDS011;24026;49.446;8.576;2023-05-20T09:02:51;136.07;;;123.72;;
38226;SDS011;24026;49.446;8.576;2023-05-20T09:05:13;137.55;;;125.10;;
38226;SDS011;24026;49.446;8.576;2023-05-20T09:07:33;137.43;;;125.05;;
38226;SDS011;24026;49.446;8.576;2023-05-20T09:09:56;137.07;;;124.53;;
38226;SDS011;24026;49.446;8.576;2023-05-20T09:12:18;137.45;;;124.95;;
38226;SDS011;24026;49.446;8.576;2023-05-20T09:14:40;137.15;;;124.68;;
38226;SDS011;24026;49.446;8.576;2023-05-20T09:17:03;137.00;;;124.50;;
38226;SDS011;24026;49.446;8.576;2023-05-20T09:19:24;137.40;;;124.97;;
38226;SDS011;24026;49.446;8.576;2023-05-20T09:21:46;137.27;;;124.97;;
38226;SDS011;24026;49.446;8.576;2023-05-20T09:24:07;137.60;;;125.20;;
38226;SDS011;24026;49.446;8.576;2023-05-20T09:26:27;138.60;;;126.07;;
38226;SDS011;24026;49.446;8.576;2023-05-20T09:28:49;137.85;;;125.40;;
38226;SDS011;24026;49.446;8.576;2023-05-20T09:31:12;139.68;;;127.10;;
38226;SDS011;24026;49.446;8.576;2023-05-20T09:33:33;137.10;;;124.80;;
38226;SDS011;24026;49.446;8.576;2023-05-20T09:36:00;139.00;;;126.50;;
38226;SDS011;24026;49.446;8.576;2023-05-20T09:38:22;138.05;;;125.57;;
38226;SDS011;24026;49.446;8.576;2023-05-20T09:40:44;139.13;;;126.53;;
38226;SDS011;24026;49.446;8.576;2023-05-20T09:43:06;139.45;;;126.95;;
38226;SDS011;24026;49.446;8.576;2023-05-20T09:45:27;138.02;;;125.53;;
38226;SDS011;24026;49.446;8.576;2023-05-20T09:47:49;139.18;;;126.68;;
38226;SDS011;24026;49.446;8.576;2023-05-20T09:50:12;138.45;;;125.97;;
38226;SDS011;24026;49.446;8.576;2023-05-20T09:52:34;138.52;;;126.10;;
38226;SDS011;24026;49.446;8.576;2023-05-20T09:54:57;140.35;;;127.85;;
38226;SDS011;24026;49.446;8.576;2023-05-20T09:57:18;139.07;;;126.65;;
38226;SDS011;24026;49.446;8.576;2023-05-20T09:59:39;140.45;;;127.95;;
38226;SDS011;24026;49.446;8.576;2023-05-20T10:02:00;138.82;;;126.40;;
38226;SDS011;24026;49.446;8.576;2023-05-20T10:04:21;141.57;;;128.82;;
38226;SDS011;24026;49.446;8.576;2023-05-20T10:15:09;139.50;;;127.00;;
38226;SDS011;24026;49.446;8.576;2023-05-20T10:20:20;140.88;;;128.07;;
38226;SDS011;24026;49.446;8.576;2023-05-20T10:22:41;140.85;;;128.02;;
38226;SDS011;24026;49.446;8.576;2023-05-20T10:25:04;141.43;;;128.70;;
38226;SDS011;24026;49.446;8.576;2023-05-20T10:27:26;141.27;;;128.52;;
38226;SDS011;24026;49.446;8.576;2023-05-20T10:29:53;140.55;;;127.78;;
38226;SDS011;24026;49.446;8.576;2023-05-20T10:32:25;140.57;;;128.05;;
38226;SDS011;24026;49.446;8.576;2023-05-20T10:34:46;140.80;;;128.00;;
38226;SDS011;24026;49.446;8.576;2023-05-20T10:37:09;141.60;;;128.95;;
38226;SDS011;24026;49.446;8.576;2023-05-20T10:39:42;141.30;;;128.65;;
38226;SDS011;24026;49.446;8.576;2023-05-20T10:42:08;142.88;;;130.15;;
38226;SDS011;24026;49.446;8.576;2023-05-20T10:44:38;140.93;;;128.32;;
38226;SDS011;24026;49.446;8.576;2023-05-20T10:47:02;142.50;;;129.70;;
38226;SDS011;24026;49.446;8.576;2023-05-20T10:49:23;142.88;;;129.88;;
38226;SDS011;24026;49.446;8.576;2023-05-20T10:51:44;141.13;;;128.48;;
38226;SDS011;24026;49.446;8.576;2023-05-20T10:54:08;142.15;;;129.35;;
38226;SDS011;24026;49.446;8.576;2023-05-20T10:56:28;141.00;;;128.40;;
38226;SDS011;24026;49.446;8.576;2023-05-20T10:58:49;142.55;;;129.65;;
38226;SDS011;24026;49.446;8.576;2023-05-20T11:01:11;142.93;;;130.10;;
38226;SDS011;24026;49.446;8.576;2023-05-20T11:03:33;143.32;;;130.23;;
38226;SDS011;24026;49.446;8.576;2023-05-20T11:05:54;141.65;;;128.95;;
38226;SDS011;24026;49.446;8.576;2023-05-20T11:08:14;143.20;;;130.20;;
38226;SDS011;24026;49.446;8.576;2023-05-20T11:10:35;142.52;;;129.73;;
38226;SDS011;24026;49.446;8.576;2023-05-20T11:12:56;143.45;;;130.68;;
38226;SDS011;24026;49.446;8.576;2023-05-20T11:15:16;142.57;;;129.88;;
38226;SDS011;24026;49.446;8.576;2023-05-20T11:17:50;142.85;;;130.10;;
38226;SDS011;24026;49.446;8.576;2023-05-20T11:20:13;142.60;;;129.75;;
38226;SDS011;24026;49.446;8.576;2023-05-20T11:22:33;145.13;;;132.15;;
38226;SDS011;24026;49.446;8.576;2023-05-20T11:24:53;148.93;;;135.43;;
38226;SDS011;24026;49.446;8.576;2023-05-20T11:27:14;145.82;;;132.45;;
38226;SDS011;24026;49.446;8.576;2023-05-20T11:29:34;145.32;;;132.32;;
38226;SDS011;24026;49.446;8.576;2023-05-20T11:31:55;146.57;;;133.45;;
38226;SDS011;24026;49.446;8.576;2023-05-20T11:34:15;144.10;;;131.10;;
38226;SDS011;24026;49.446;8.576;2023-05-20T11:36:42;146.02;;;133.00;;
38226;SDS011;24026;49.446;8.576;2023-05-20T11:39:03;148.45;;;134.80;;
38226;SDS011;24026;49.446;8.576;2023-05-20T11:41:27;147.75;;;134.55;;
38226;SDS011;24026;49.446;8.576;2023-05-20T11:43:58;146.95;;;133.45;;
38226;SDS011;24026;49.446;8.576;2023-05-20T11:46:19;146.77;;;133.38;;
38226;SDS011;24026;49.446;8.576;2023-05-20T11:48:40;148.63;;;135.13;;
38226;SDS011;24026;49.446;8.576;2023-05-20T11:51:10;149.68;;;136.13;;
38226;SDS011;24026;49.446;8.576;2023-05-20T11:53:32;150.90;;;136.93;;
38226;SDS011;24026;49.446;8.576;2023-05-20T11:55:54;152.13;;;138.38;;
38226;SDS011;24026;49.446;8.576;2023-05-20T11:58:15;151.82;;;137.93;;
38226;SDS011;24026;49.446;8.576;2023-05-20T12:00:38;155.27;;;140.75;;
38226;SDS011;24026;49.446;8.576;2023-05-20T12:02:58;149.43;;;135.75;;
38226;SDS011;24026;49.446;8.576;2023-05-20T12:05:19;154.25;;;140.07;;
38226;SDS011;24026;49.446;8.576;2023-05-20T12:07:40;151.00;;;137.30;;
38226;SDS011;24026;49.446;8.576;2023-05-20T12:10:01;153.40;;;139.18;;
38226;SDS011;24026;49.446;8.576;2023-05-20T12:12:22;155.07;;;140.82;;
38226;SDS011;24026;49.446;8.576;2023-05-20T12:14:44;156.20;;;141.95;;
38226;SDS011;24026;49.446;8.576;2023-05-20T12:17:05;154.13;;;139.95;;
38226;SDS011;24026;49.446;8.576;2023-05-20T12:19:26;156.52;;;142.10;;
38226;SDS011;24026;49.446;8.576;2023-05-20T12:21:46;153.98;;;139.93;;
38226;SDS011;24026;49.446;8.576;2023-05-20T12:24:06;157.02;;;142.68;;
38226;SDS011;24026;49.446;8.576;2023-05-20T12:26:28;157.70;;;143.15;;
38226;SDS011;24026;49.446;8.576;2023-05-20T12:28:48;159.40;;;144.43;;
38226;SDS011;24026;49.446;8.576;2023-05-20T12:31:09;158.98;;;144.45;;
38226;SDS011;24026;49.446;8.576;2023-05-20T12:33:30;159.75;;;144.73;;
38226;SDS011;24026;49.446;8.576;2023-05-20T12:35:51;156.50;;;141.95;;
38226;SDS011;24026;49.446;8.576;2023-05-20T12:38:11;159.00;;;144.35;;
38226;SDS011;24026;49.446;8.576;2023-05-20T12:40:32;157.82;;;143.02;;
38226;SDS011;24026;49.446;8.576;2023-05-20T12:42:53;158.48;;;143.95;;
38226;SDS011;24026;49.446;8.576;2023-05-20T12:45:13;159.27;;;144.65;;
38226;SDS011;24026;49.446;8.576;2023-05-20T12:47:34;157.95;;;143.52;;
38226;SDS011;24026;49.446;8.576;2023-05-20T12:49:55;157.27;;;142.88;;
38226;SDS011;24026;49.446;8.576;2023-05-20T12:52:15;159.50;;;144.90;;
38226;SDS011;24026;49.446;8.576;2023-05-20T12:54:35;158.70;;;144.13;;
38226;SDS011;24026;49.446;8.576;2023-05-20T12:56:56;158.40;;;143.80;;
38226;SDS011;24026;49.446;8.576;2023-05-20T12:59:20;158.02;;;143.63;;
38226;SDS011;24026;49.446;8.576;2023-05-20T13:01:40;156.65;;;142.43;;
38226;SDS011;24026;49.446;8.576;2023-05-20T13:04:04;157.52;;;143.02;;
38226;SDS011;24026;49.446;8.576;2023-05-20T13:06:24;156.43;;;141.93;;
38226;SDS011;24026;49.446;8.576;2023-05-20T13:08:45;158.05;;;143.35;;
38226;SDS011;24026;49.446;8.576;2023-05-20T13:11:05;157.82;;;143.35;;
38226;SDS011;24026;49.446;8.576;2023-05-20T13:13:26;156.70;;;142.30;;
38226;SDS011;24026;49.446;8.576;2023-05-20T13:15:46;155.57;;;141.32;;
38226;SDS011;24026;49.446;8.576;2023-05-20T13:18:10;155.98;;;141.75;;
38226;SDS011;24026;49.446;8.576;2023-05-20T13:20:30;157.85;;;143.55;;
38226;SDS011;24026;49.446;8.576;2023-05-20T13:22:51;158.10;;;143.68;;
38226;SDS011;24026;49.446;8.576;2023-05-20T13:25:11;156.80;;;142.55;;
38226;SDS011;24026;49.446;8.576;2023-05-20T13:27:32;158.30;;;143.98;;
38226;SDS011;24026;49.446;8.576;2023-05-20T13:29:52;155.05;;;140.95;;
38226;SDS011;24026;49.446;8.576;2023-05-20T13:32:12;155.90;;;141.70;;